Time;durP1;ratioP1;P1;durP2;ratioP2;P2;SDS_P1;SDS_P2;PMS_P1;PMS_P2;Temp;Humidity;BMP_temperature;BMP_pressure;BME280_temperature;BME280_humidity;BME280_pressure;Samples;Min_cycle;Max_cycle;Signal;HPM_P1;HPM_P2
2021/10/24 00:01:11;;;;;;;3.97;2.40;;;4.60;99.90;;;;;;5095188;28;20411;-84
2021/10/24 00:03:37;;;;;;;4.57;2.37;;;4.70;99.90;;;;;;5095523;28;20207;-86
2021/10/24 00:06:03;;;;;;;11.10;3.17;;;4.40;99.90;;;;;;5095321;28;20616;-86
2021/10/24 00:08:30;;;;;;;3.50;2.30;;;4.50;99.90;;;;;;5095542;28;20173;-86
2021/10/24 00:10:55;;;;;;;3.53;2.03;;;4.50;99.90;;;;;;5095108;28;20406;-85
2021/10/24 00:13:21;;;;;;;5.30;2.20;;;4.30;99.90;;;;;;5095297;28;20475;-83
2021/10/24 00:15:46;;;;;;;3.80;1.90;;;4.50;99.90;;;;;;5094887;28;20228;-85
2021/10/24 00:18:12;;;;;;;5.00;2.43;;;4.80;99.90;;;;;;5094872;28;20200;-85
2021/10/24 00:20:38;;;;;;;5.77;2.80;;;4.80;99.90;;;;;;5094842;28;20210;-85
2021/10/24 00:23:03;;;;;;;3.70;2.87;;;4.80;99.90;;;;;;5094818;28;20649;-86
2021/10/24 00:25:29;;;;;;;6.43;2.40;;;4.90;99.90;;;;;;5094954;28;20172;-82
2021/10/24 00:27:55;;;;;;;5.03;2.60;;;4.80;99.90;;;;;;5094881;28;20254;-86
2021/10/24 00:30:20;;;;;;;3.23;1.73;;;4.80;99.90;;;;;;5095069;28;20171;-85
2021/10/24 00:32:49;;;;;;;3.10;1.67;;;4.80;99.90;;;;;;5094651;28;20282;-84
2021/10/24 00:35:14;;;;;;;4.63;2.57;;;4.90;99.90;;;;;;5094615;28;20577;-81
2021/10/24 00:37:43;;;;;;;3.93;2.30;;;4.80;99.90;;;;;;5094803;28;20446;-81
2021/10/24 00:40:09;;;;;;;6.90;2.60;;;4.70;99.90;;;;;;5094799;28;20271;-81
2021/10/24 00:42:34;;;;;;;9.23;2.83;;;4.80;99.90;;;;;;5094578;28;20406;-84
2021/10/24 00:45:00;;;;;;;4.83;3.40;;;4.70;99.90;;;;;;5094568;28;20418;-83
2021/10/24 00:47:29;;;;;;;9.00;2.77;;;4.80;99.90;;;;;;5094433;28;20165;-84
2021/10/24 00:49:55;;;;;;;4.57;1.90;;;4.60;99.90;;;;;;5094442;28;20164;-86
2021/10/24 00:52:20;;;;;;;6.40;2.03;;;4.60;99.90;;;;;;5094249;28;20940;-85
2021/10/24 00:54:48;;;;;;;4.27;2.40;;;4.60;99.90;;;;;;5094585;28;20517;-83
2021/10/24 00:57:13;;;;;;;5.93;2.00;;;4.60;99.90;;;;;;5094260;28;20160;-85
2021/10/24 00:59:39;;;;;;;5.07;2.90;;;4.70;99.90;;;;;;5094419;28;20860;-85
2021/10/24 01:02:05;;;;;;;4.50;1.67;;;4.70;99.90;;;;;;5094588;28;20203;-83
2021/10/24 01:04:31;;;;;;;7.87;2.07;;;4.60;99.90;;;;;;5094247;28;20450;-85
2021/10/24 01:07:02;;;;;;;5.93;1.97;;;4.50;99.90;;;;;;5094196;28;20168;-83
2021/10/24 01:09:30;;;;;;;3.80;2.30;;;4.70;99.90;;;;;;5094360;28;20157;-86
2021/10/24 01:11:55;;;;;;;6.33;2.13;;;4.70;99.90;;;;;;5094263;28;20767;-87
2021/10/24 01:14:24;;;;;;;2.43;1.57;;;4.70;99.90;;;;;;5094015;28;20457;-85
2021/10/24 01:16:53;;;;;;;3.87;2.13;;;4.70;99.90;;;;;;5093785;28;20238;-86
2021/10/24 01:19:20;;;;;;;9.97;2.50;;;4.70;99.90;;;;;;5075912;28;20990;-86
2021/10/24 01:21:47;;;;;;;5.60;2.47;;;4.70;99.90;;;;;;5094363;28;20758;-82
2021/10/24 01:24:22;;;;;;;6.30;1.70;;;4.70;99.90;;;;;;5093947;28;20415;-86
2021/10/24 01:26:47;;;;;;;4.40;2.07;;;4.70;99.90;;;;;;5093995;28;20386;-83
2021/10/24 01:29:13;;;;;;;3.97;2.00;;;4.60;99.90;;;;;;5093739;28;20467;-86
2021/10/24 01:31:39;;;;;;;6.80;2.00;;;4.60;99.90;;;;;;5093747;28;20168;-86
2021/10/24 01:34:05;;;;;;;5.93;1.90;;;4.60;99.90;;;;;;5075689;28;20516;-86
2021/10/24 01:36:32;;;;;;;5.37;2.50;;;4.70;99.90;;;;;;5093911;28;20407;-86
2021/10/24 01:38:58;;;;;;;4.47;1.40;;;4.60;99.90;;;;;;5093414;28;20214;-84
2021/10/24 01:41:27;;;;;;;8.07;1.60;;;4.70;99.90;;;;;;5075348;28;20422;-85
2021/10/24 01:43:53;;;;;;;5.80;1.97;;;4.60;99.90;;;;;;5093580;28;20259;-85
2021/10/24 01:46:19;;;;;;;1.93;1.57;;;4.60;99.90;;;;;;5093384;28;20438;-85
2021/10/24 01:48:45;;;;;;;2.80;1.77;;;4.60;99.90;;;;;;5093437;28;20200;-85
2021/10/24 01:51:12;;;;;;;3.00;1.83;;;4.60;99.90;;;;;;5093446;28;20983;-85
2021/10/24 01:53:43;;;;;;;6.50;3.20;;;4.60;99.90;;;;;;5093482;28;20882;-85
2021/10/24 01:56:09;;;;;;;3.27;2.20;;;4.60;99.90;;;;;;5093821;28;20387;-84
2021/10/24 01:58:38;;;;;;;1.97;1.63;;;4.70;99.90;;;;;;5096203;28;20512;-86
2021/10/24 02:01:06;;;;;;;4.73;1.63;;;4.70;99.90;;;;;;5097444;28;20402;-85
2021/10/24 02:03:32;;;;;;;9.37;2.40;;;4.80;99.90;;;;;;5097914;28;20417;-87
2021/10/24 02:05:57;;;;;;;6.43;2.17;;;4.70;99.90;;;;;;5097815;28;20408;-88
2021/10/24 02:08:23;;;;;;;3.70;1.80;;;4.80;99.90;;;;;;5097988;28;20524;-83
2021/10/24 02:10:49;;;;;;;3.87;2.10;;;4.70;99.90;;;;;;5097685;28;20183;-85
2021/10/24 02:13:15;;;;;;;3.10;1.50;;;4.80;99.90;;;;;;5097224;28;20577;-86
2021/10/24 02:15:41;;;;;;;7.33;2.23;;;4.80;99.90;;;;;;5097073;28;20458;-87
2021/10/24 02:18:08;;;;;;;6.50;1.90;;;4.90;99.90;;;;;;5097253;28;20815;-86
2021/10/24 02:23:10;;;;;;;4.47;1.87;;;4.90;99.90;;;;;;5072987;28;20489;-87
2021/10/24 02:25:39;;;;;;;6.50;2.77;;;4.90;99.90;;;;;;5076160;28;20890;-87
2021/10/24 02:28:05;;;;;;;5.33;2.20;;;5.30;99.90;;;;;;5076255;28;20427;-86
2021/10/24 02:30:31;;;;;;;4.23;1.93;;;4.90;99.90;;;;;;5076305;28;20411;-87
2021/10/24 02:32:56;;;;;;;5.87;1.93;;;4.90;99.90;;;;;;5076117;28;20429;-87
2021/10/24 02:35:25;;;;;;;7.23;1.67;;;4.90;99.90;;;;;;5076545;28;20545;-87
2021/10/24 02:37:51;;;;;;;5.33;2.03;;;5.00;99.90;;;;;;5075819;28;20692;-87
2021/10/24 02:40:16;;;;;;;3.20;2.00;;;4.90;99.90;;;;;;5074894;28;20443;-86
2021/10/24 02:42:43;;;;;;;6.80;2.70;;;4.90;99.90;;;;;;5076230;28;20181;-86
2021/10/24 02:45:09;;;;;;;2.70;1.80;;;5.00;99.90;;;;;;5076278;28;20200;-87
2021/10/24 02:47:35;;;;;;;6.00;1.90;;;5.00;99.90;;;;;;5076365;28;20846;-85
2021/10/24 02:50:01;;;;;;;4.37;2.00;;;5.00;99.90;;;;;;5075831;28;20454;-85
2021/10/24 02:52:26;;;;;;;3.63;1.63;;;4.90;99.90;;;;;;5075367;28;20643;-87
2021/10/24 02:54:52;;;;;;;9.33;2.63;;;5.00;99.90;;;;;;5075664;28;20188;-86
2021/10/24 02:57:18;;;;;;;6.70;1.73;;;5.00;99.90;;;;;;5075891;28;20169;-85
2021/10/24 02:59:43;;;;;;;2.93;1.73;;;4.90;99.90;;;;;;5075533;28;20514;-87
2021/10/24 03:02:09;;;;;;;3.73;2.23;;;4.80;99.90;;;;;;5069251;28;20186;-86
2021/10/24 03:04:35;;;;;;;6.53;2.20;;;4.80;99.90;;;;;;5075604;28;20638;-85
2021/10/24 03:07:00;;;;;;;7.33;2.50;;;4.90;99.90;;;;;;5075617;28;20219;-85
2021/10/24 03:09:26;;;;;;;2.53;1.70;;;4.90;99.90;;;;;;5057054;28;20229;-85
2021/10/24 03:11:52;;;;;;;6.73;1.60;;;4.90;99.90;;;;;;5075597;28;20173;-84
2021/10/24 03:14:18;;;;;;;5.80;1.63;;;4.80;99.90;;;;;;5075318;28;20962;-86
2021/10/24 03:16:47;;;;;;;5.10;1.83;;;4.80;99.90;;;;;;5057376;28;20427;-86
2021/10/24 03:19:13;;;;;;;3.33;2.00;;;4.80;99.90;;;;;;5075242;28;20215;-85
2021/10/24 03:21:39;;;;;;;5.67;2.00;;;4.80;99.90;;;;;;5056821;28;20473;-84
2021/10/24 03:24:07;;;;;;;8.27;3.17;;;4.70;99.90;;;;;;5074959;28;20628;-85
2021/10/24 03:26:37;;;;;;;9.47;2.50;;;4.80;99.90;;;;;;5057281;28;20544;-85
2021/10/24 03:29:02;;;;;;;5.80;2.50;;;4.80;99.90;;;;;;5056919;28;20427;-86
2021/10/24 03:31:28;;;;;;;9.00;2.80;;;4.70;99.90;;;;;;5056501;28;20420;-86
2021/10/24 03:33:54;;;;;;;6.27;2.03;;;4.80;99.90;;;;;;5073733;28;20219;-86
2021/10/24 03:38:57;;;;;;;4.43;2.30;;;4.80;99.90;;;;;;5714861;22;20720;-85
2021/10/24 03:41:22;;;;;;;3.10;2.10;;;4.70;99.90;;;;;;5043589;28;20420;-85
2021/10/24 03:43:48;;;;;;;4.20;2.23;;;4.70;99.90;;;;;;5055048;28;20224;-83
2021/10/24 03:46:13;;;;;;;2.17;1.70;;;4.70;99.90;;;;;;5054285;28;20641;-85
2021/10/24 03:48:39;;;;;;;6.60;2.67;;;4.80;99.90;;;;;;5055112;28;20257;-86
2021/10/24 03:51:05;;;;;;;5.17;3.10;;;4.70;99.90;;;;;;5055118;28;20175;-88
2021/10/24 03:53:31;;;;;;;4.73;1.80;;;4.60;99.90;;;;;;5055605;28;20170;-86
2021/10/24 03:55:56;;;;;;;3.00;1.93;;;4.70;99.90;;;;;;5055313;28;20418;-86
2021/10/24 03:58:22;;;;;;;4.33;2.47;;;4.70;99.90;;;;;;5054941;28;20288;-86
2021/10/24 04:00:47;;;;;;;4.43;2.43;;;4.70;99.90;;;;;;5054845;28;20189;-84
2021/10/24 04:03:13;;;;;;;6.83;2.60;;;4.60;99.90;;;;;;5054740;28;20666;-85
2021/10/24 04:05:38;;;;;;;8.67;2.67;;;4.70;99.90;;;;;;5036939;28;20660;-83
2021/10/24 04:08:04;;;;;;;3.43;2.10;;;4.50;99.90;;;;;;5054399;28;20166;-83
2021/10/24 04:10:30;;;;;;;8.87;2.13;;;4.50;99.90;;;;;;5054664;28;20206;-84
2021/10/24 04:12:56;;;;;;;2.90;1.77;;;4.50;99.90;;;;;;5053807;28;20177;-85
2021/10/24 04:15:23;;;;;;;5.27;1.90;;;4.40;99.90;;;;;;5054619;28;20416;-87
2021/10/24 04:17:49;;;;;;;6.00;2.90;;;4.40;99.90;;;;;;5054595;28;20834;-84
2021/10/24 04:20:18;;;;;;;3.20;2.07;;;4.40;99.90;;;;;;5054250;28;20448;-87
2021/10/24 04:22:45;;;;;;;7.80;1.33;;;4.30;99.90;;;;;;5054266;28;20409;-85
2021/10/24 04:25:12;;;;;;;4.97;2.73;;;4.40;99.90;;;;;;5054612;28;20434;-85
2021/10/24 04:27:38;;;;;;;7.63;2.47;;;4.20;99.90;;;;;;5054682;28;20443;-83
2021/10/24 04:30:06;;;;;;;5.23;3.00;;;4.20;99.90;;;;;;5054674;28;20419;-85
2021/10/24 04:32:33;;;;;;;5.03;2.80;;;4.20;99.90;;;;;;5036739;28;20821;-85
2021/10/24 04:34:58;;;;;;;5.73;1.97;;;4.20;99.90;;;;;;5054780;28;20419;-89
2021/10/24 04:37:24;;;;;;;6.03;1.93;;;4.10;99.90;;;;;;5054073;28;20411;-83
2021/10/24 04:39:49;;;;;;;4.53;2.10;;;4.20;99.90;;;;;;5054464;28;20221;-86
2021/10/24 04:42:15;;;;;;;7.17;2.10;;;4.10;99.90;;;;;;5054225;28;20205;-87
2021/10/24 04:44:41;;;;;;;6.47;2.90;;;4.10;99.90;;;;;;5054714;28;20169;-85
2021/10/24 04:47:06;;;;;;;5.80;2.87;;;4.10;99.90;;;;;;5054361;28;20166;-86
2021/10/24 04:49:32;;;;;;;3.40;2.33;;;4.10;99.90;;;;;;5054448;28;20211;-83
2021/10/24 04:51:59;;;;;;;3.50;2.33;;;4.10;99.90;;;;;;5054421;28;20196;-86
2021/10/24 04:54:24;;;;;;;6.20;3.10;;;4.00;99.90;;;;;;5053974;28;20185;-87
2021/10/24 04:56:52;;;;;;;3.30;2.17;;;4.00;99.90;;;;;;5054291;28;20993;-87
2021/10/24 04:59:19;;;;;;;5.50;3.60;;;3.90;99.90;;;;;;5054102;28;20205;-87
2021/10/24 05:01:45;;;;;;;8.27;3.10;;;4.00;99.90;;;;;;5052517;28;20507;-86
2021/10/24 05:04:11;;;;;;;3.40;2.80;;;4.00;99.90;;;;;;5053647;28;20759;-86
2021/10/24 05:06:38;;;;;;;10.50;3.13;;;4.00;99.90;;;;;;5053420;28;20401;-86
2021/10/24 05:09:04;;;;;;;10.23;2.50;;;4.00;99.90;;;;;;5053221;28;20929;-85
2021/10/24 05:11:30;;;;;;;3.40;2.80;;;3.90;99.90;;;;;;5053468;28;20414;-87
2021/10/24 05:13:55;;;;;;;6.13;3.27;;;4.00;99.90;;;;;;5053458;28;20424;-84
2021/10/24 05:16:21;;;;;;;6.30;2.87;;;3.90;99.90;;;;;;5053382;28;20161;-86
2021/10/24 05:18:46;;;;;;;6.00;2.33;;;3.80;99.90;;;;;;5053244;28;20300;-85
2021/10/24 05:21:12;;;;;;;7.27;3.00;;;3.80;99.90;;;;;;5053448;28;20619;-82
2021/10/24 05:23:38;;;;;;;5.17;3.10;;;3.90;99.90;;;;;;5053007;28;20196;-86
2021/10/24 05:26:04;;;;;;;5.63;2.43;;;3.80;99.90;;;;;;5053383;28;20536;-85
2021/10/24 05:28:33;;;;;;;2.20;1.80;;;3.90;99.90;;;;;;5052031;28;20205;-85
2021/10/24 05:30:59;;;;;;;4.30;2.20;;;3.80;99.90;;;;;;5053235;28;20397;-84
2021/10/24 05:33:24;;;;;;;4.97;2.60;;;3.80;99.90;;;;;;5051263;28;20974;-85
2021/10/24 05:35:53;;;;;;;3.20;2.90;;;3.80;99.90;;;;;;5053274;28;20440;-86
2021/10/24 05:38:19;;;;;;;8.47;3.40;;;3.80;99.90;;;;;;5052755;28;20320;-87
2021/10/24 05:40:46;;;;;;;7.43;3.90;;;3.80;99.90;;;;;;5053067;28;20428;-87
2021/10/24 05:43:12;;;;;;;9.10;3.50;;;3.70;99.90;;;;;;5052326;28;20994;-85
2021/10/24 05:45:37;;;;;;;4.83;3.20;;;3.80;99.90;;;;;;5052631;28;20545;-86
2021/10/24 05:48:03;;;;;;;4.43;2.83;;;3.80;99.90;;;;;;5053414;28;20414;-85
2021/10/24 05:50:29;;;;;;;7.83;4.07;;;3.70;99.90;;;;;;5035748;28;20178;-88
2021/10/24 05:52:55;;;;;;;4.13;2.77;;;3.70;99.90;;;;;;5035314;28;20184;-85
2021/10/24 05:55:21;;;;;;;7.30;3.27;;;3.70;99.90;;;;;;5053330;28;20424;-87
2021/10/24 05:57:47;;;;;;;9.03;3.00;;;3.60;99.90;;;;;;5035255;28;20300;-86
2021/10/24 06:00:13;;;;;;;6.07;3.53;;;3.70;99.90;;;;;;5053406;28;20412;-86
2021/10/24 06:02:39;;;;;;;6.57;3.77;;;3.70;99.90;;;;;;5053204;28;20408;-88
2021/10/24 06:05:05;;;;;;;5.23;3.40;;;3.70;99.90;;;;;;5053268;28;20923;-86
2021/10/24 06:07:33;;;;;;;4.30;3.87;;;3.70;99.90;;;;;;5053170;28;20567;-87
2021/10/24 06:10:07;;;;;;;5.10;2.63;;;3.70;99.90;;;;;;5053526;28;20417;-87
2021/10/24 06:15:07;;;;;;;4.13;3.00;;;3.70;99.90;;;;;;5053451;28;20496;-87
2021/10/24 06:17:33;;;;;;;6.97;3.20;;;3.70;99.90;;;;;;5053003;28;20974;-87
2021/10/24 06:19:58;;;;;;;9.17;3.20;;;3.60;99.90;;;;;;5053104;28;20404;-87
2021/10/24 06:22:24;;;;;;;5.73;2.70;;;3.60;99.90;;;;;;5052880;28;20446;-88
2021/10/24 06:24:50;;;;;;;4.23;3.30;;;3.80;99.90;;;;;;5052855;28;20158;-87
2021/10/24 06:27:15;;;;;;;5.27;3.10;;;3.80;99.90;;;;;;5035309;28;20420;-84
2021/10/24 06:29:41;;;;;;;8.27;3.17;;;3.70;99.90;;;;;;5052980;28;20701;-88
2021/10/24 06:32:06;;;;;;;8.23;3.00;;;3.80;99.90;;;;;;5053122;28;20649;-87
2021/10/24 06:34:32;;;;;;;6.03;2.40;;;3.90;99.90;;;;;;5052033;28;20220;-88
2021/10/24 06:36:58;;;;;;;5.20;3.70;;;3.80;99.90;;;;;;5052574;28;20171;-86
2021/10/24 06:39:27;;;;;;;5.77;3.17;;;3.80;99.90;;;;;;5051614;28;20230;-87
2021/10/24 06:41:52;;;;;;;6.90;3.50;;;3.80;99.90;;;;;;5052675;28;20174;-84
2021/10/24 06:44:18;;;;;;;4.10;2.90;;;3.90;99.90;;;;;;5054443;28;20777;-86
2021/10/24 06:46:43;;;;;;;10.03;3.30;;;3.90;99.90;;;;;;5056092;28;20166;-85
2021/10/24 06:49:10;;;;;;;10.90;3.90;;;4.00;99.90;;;;;;5054731;28;20636;-87
2021/10/24 06:51:35;;;;;;;6.83;2.40;;;4.10;99.90;;;;;;5055944;28;20273;-84
2021/10/24 06:54:01;;;;;;;11.10;3.00;;;4.00;99.90;;;;;;5055629;28;20500;-85
2021/10/24 06:56:27;;;;;;;9.30;2.97;;;4.10;99.90;;;;;;5055512;28;20178;-83
2021/10/24 06:58:52;;;;;;;6.50;4.30;;;4.10;99.90;;;;;;5055817;28;20213;-84
2021/10/24 07:01:18;;;;;;;6.47;2.53;;;4.20;99.90;;;;;;5055734;28;20166;-83
2021/10/24 07:03:43;;;;;;;5.20;3.33;;;4.10;99.90;;;;;;5037871;28;20178;-83
2021/10/24 07:06:09;;;;;;;4.93;3.20;;;4.20;99.90;;;;;;5055540;28;20653;-85
2021/10/24 07:08:35;;;;;;;11.27;3.03;;;4.20;99.90;;;;;;5055136;28;20668;-84
2021/10/24 07:11:00;;;;;;;7.97;3.60;;;4.40;99.90;;;;;;5055476;28;20230;-82
2021/10/24 07:13:26;;;;;;;6.50;3.13;;;4.60;99.90;;;;;;5055616;28;20170;-84
2021/10/24 07:15:52;;;;;;;8.40;3.43;;;4.70;99.90;;;;;;5037574;28;20268;-83
2021/10/24 07:18:17;;;;;;;5.87;2.97;;;4.80;99.90;;;;;;5055382;28;20209;-83
2021/10/24 07:20:43;;;;;;;5.57;2.20;;;4.90;99.90;;;;;;5037631;28;20524;-82
2021/10/24 07:23:09;;;;;;;5.20;2.80;;;;;;;;;;5037349;28;20180;-82
2021/10/24 07:25:35;;;;;;;9.10;3.80;;;5.00;99.90;;;;;;5055422;28;20170;-82
2021/10/24 07:28:00;;;;;;;10.47;3.60;;;5.10;99.90;;;;;;5055382;28;20912;-82
2021/10/24 07:30:26;;;;;;;5.07;3.10;;;5.10;99.90;;;;;;5055423;28;20212;-81
2021/10/24 07:32:51;;;;;;;6.43;2.40;;;5.20;99.90;;;;;;5055204;28;20173;-86
2021/10/24 07:35:35;;;;;;;4.23;2.60;;;5.30;99.90;;;;;;5054658;28;20178;-88
2021/10/24 07:38:05;;;;;;;4.33;2.87;;;5.30;99.90;;;;;;5055169;28;20594;-88
2021/10/24 07:40:35;;;;;;;4.00;2.97;;;5.30;99.90;;;;;;5055245;28;20420;-89
2021/10/24 07:43:01;;;;;;;7.70;2.63;;;5.40;99.90;;;;;;5052379;28;20403;-88
2021/10/24 07:45:27;;;;;;;10.77;2.77;;;5.50;99.90;;;;;;5053499;28;20507;-83
2021/10/24 07:47:52;;;;;;;9.43;2.00;;;5.70;99.90;;;;;;5052510;28;20667;-85
2021/10/24 07:50:18;;;;;;;7.40;3.30;;;5.80;99.90;;;;;;5052921;28;20401;-84
2021/10/24 07:52:45;;;;;;;4.90;2.27;;;6.00;99.90;;;;;;5053590;28;20179;-83
2021/10/24 07:55:11;;;;;;;5.13;2.33;;;5.90;99.90;;;;;;5052885;28;20575;-87
2021/10/24 07:57:36;;;;;;;5.70;3.13;;;5.90;99.90;;;;;;5046294;28;20523;-83
2021/10/24 08:00:05;;;;;;;3.80;2.20;;;6.00;99.90;;;;;;5051458;28;20194;-82
2021/10/24 08:02:33;;;;;;;4.00;1.80;;;6.10;99.90;;;;;;5053496;28;20173;-86
2021/10/24 08:05:00;;;;;;;5.97;2.13;;;6.40;99.90;;;;;;5052371;28;20897;-84
2021/10/24 08:07:25;;;;;;;8.03;2.70;;;6.70;99.90;;;;;;5053164;28;20404;-83
2021/10/24 08:09:51;;;;;;;10.43;2.70;;;6.90;99.90;;;;;;5035435;28;20974;-84
2021/10/24 08:12:17;;;;;;;4.97;3.23;;;6.90;99.90;;;;;;5053503;28;20631;-84
2021/10/24 08:14:45;;;;;;;6.60;2.90;;;7.00;99.90;;;;;;5035640;28;20170;-86
2021/10/24 08:17:11;;;;;;;7.40;2.80;;;7.30;99.90;;;;;;5054212;28;20165;-87
2021/10/24 08:19:57;;;;;;;6.50;2.77;;;7.50;99.90;;;;;;5037141;28;20474;-89
2021/10/24 08:22:23;;;;;;;5.50;2.43;;;7.90;99.90;;;;;;5054163;28;20191;-90
2021/10/24 08:24:49;;;;;;;5.50;2.33;;;8.20;99.90;;;;;;5054701;28;20461;-88
2021/10/24 08:27:15;;;;;;;4.70;2.90;;;8.40;99.90;;;;;;5054789;28;21146;-90
2021/10/24 08:29:44;;;;;;;6.93;2.10;;;9.00;99.90;;;;;;5054487;28;20169;-89
2021/10/24 08:32:11;;;;;;;4.00;2.40;;;10.40;99.90;;;;;;5054312;28;20813;-87
2021/10/24 08:34:44;;;;;;;8.60;3.43;;;12.00;99.90;;;;;;5055065;28;20426;-90
2021/10/24 08:37:11;;;;;;;5.10;2.50;;;11.80;99.90;;;;;;5055061;28;20490;-93
2021/10/24 08:39:37;;;;;;;9.13;2.27;;;12.60;99.90;;;;;;5054955;28;20513;-87
2021/10/24 08:42:05;;;;;;;5.13;3.93;;;13.60;99.90;;;;;;5053914;28;20452;-88
2021/10/24 08:44:31;;;;;;;4.07;1.80;;;13.40;99.90;;;;;;5044442;28;20434;-88
2021/10/24 08:47:00;;;;;;;6.63;2.07;;;12.70;99.90;;;;;;5054481;28;20443;-90
2021/10/24 08:49:26;;;;;;;5.57;1.90;;;12.00;99.90;;;;;;5054693;28;20424;-89
2021/10/24 08:51:51;;;;;;;6.10;2.30;;;12.40;99.90;;;;;;5052157;28;20557;-91
2021/10/24 08:54:24;;;;;;;4.10;2.47;;;12.70;99.90;;;;;;5054435;28;20209;-92
2021/10/24 08:56:50;;;;;;;6.23;2.30;;;12.10;99.90;;;;;;5053024;28;20208;-89
2021/10/24 08:59:15;;;;;;;3.63;1.83;;;10.90;99.90;;;;;;5054118;28;20548;-86
2021/10/24 09:01:55;;;;;;;3.90;1.60;;;10.40;99.90;;;;;;5053998;28;20172;-89
2021/10/24 09:04:21;;;;;;;5.37;2.40;;;10.10;99.90;;;;;;5053999;28;20166;-87
2021/10/24 09:06:48;;;;;;;3.90;1.67;;;10.80;99.90;;;;;;5052718;28;20416;-88
2021/10/24 09:09:22;;;;;;;6.87;2.07;;;11.40;99.90;;;;;;5053592;28;20422;-87
2021/10/24 09:11:57;;;;;;;6.10;2.43;;;12.20;99.90;;;;;;5053719;28;20409;-88
2021/10/24 09:14:49;;;;;;;4.10;1.43;;;13.00;99.90;;;;;;5053645;28;20414;-88
2021/10/24 09:17:24;;;;;;;3.67;2.13;;;12.80;99.90;;;;;;5053557;28;20464;-87
2021/10/24 09:19:56;;;;;;;6.90;2.10;;;13.50;99.90;;;;;;5053464;28;20490;-87
2021/10/24 09:22:33;;;;;;;5.83;3.10;;;13.70;99.90;;;;;;5053151;28;20494;-85
2021/10/24 09:25:02;;;;;;;5.23;1.83;;;13.00;99.90;;;;;;5052157;28;20431;-84
2021/10/24 09:27:29;;;;;;;6.80;2.40;;;13.20;99.90;;;;;;5053366;28;20411;-86
2021/10/24 09:29:55;;;;;;;6.67;2.70;;;13.70;99.90;;;;;;5051782;28;20514;-84
2021/10/24 09:32:21;;;;;;;6.60;2.60;;;13.70;99.90;;;;;;5053284;28;20508;-86
2021/10/24 09:35:05;;;;;;;5.07;2.07;;;13.80;99.90;;;;;;5052864;28;20531;-85
2021/10/24 09:37:31;;;;;;;5.43;2.03;;;14.40;99.90;;;;;;5047269;28;20431;-85
2021/10/24 09:39:56;;;;;;;3.40;1.70;;;14.80;99.90;;;;;;5052497;28;20843;-87
2021/10/24 09:42:23;;;;;;;2.73;2.10;;;15.00;99.90;;;;;;5052704;28;20170;-87
2021/10/24 09:45:13;;;;;;;5.87;1.80;;;15.40;99.90;;;;;;5052892;28;20512;-88
2021/10/24 09:47:42;;;;;;;3.93;1.53;;;14.90;99.90;;;;;;5043036;28;20435;-85
2021/10/24 09:50:27;;;;;;;5.23;1.70;;;15.40;99.90;;;;;;5053119;28;20404;-88
2021/10/24 09:52:55;;;;;;;4.20;1.60;;;15.10;99.90;;;;;;5052599;28;20503;-88
2021/10/24 09:55:21;;;;;;;6.03;2.27;;;15.80;99.90;;;;;;5052912;28;20926;-87
2021/10/24 09:57:46;;;;;;;4.47;1.57;;;15.60;99.90;;;;;;5052523;28;20416;-86
2021/10/24 10:00:13;;;;;;;2.67;1.10;;;15.10;99.90;;;;;;5052669;28;20205;-82
2021/10/24 10:02:42;;;;;;;3.10;1.10;;;15.60;99.90;;;;;;5052749;28;20517;-87
2021/10/24 10:05:09;;;;;;;4.77;1.77;;;15.70;99.90;;;;;;5052663;28;20864;-88
2021/10/24 10:07:34;;;;;;;5.27;1.90;;;16.40;99.90;;;;;;5052078;28;20420;-84
2021/10/24 10:10:01;;;;;;;3.63;1.30;;;16.40;96.30;;;;;;5052003;28;20462;-84
2021/10/24 10:12:30;;;;;;;3.23;0.83;;;16.50;95.80;;;;;;5052621;28;20173;-88
2021/10/24 10:15:00;;;;;;;4.53;1.47;;;16.80;96.60;;;;;;5051819;28;20499;-84
2021/10/24 10:17:27;;;;;;;3.50;0.70;;;17.00;95.60;;;;;;5052733;28;20408;-87
2021/10/24 10:19:53;;;;;;;2.30;1.23;;;16.30;94.50;;;;;;5055723;28;21049;-84
2021/10/24 10:22:21;;;;;;;5.33;1.03;;;16.70;96.20;;;;;;5055794;28;20503;-82
2021/10/24 10:24:56;;;;;;;4.83;1.40;;;17.60;95.60;;;;;;5056295;28;20180;-85
2021/10/24 10:27:39;;;;;;;5.13;1.97;;;17.60;94.60;;;;;;5038592;28;20498;-87
2021/10/24 10:30:17;;;;;;;6.33;1.57;;;17.50;94.20;;;;;;5056588;28;20415;-85
2021/10/24 10:32:49;;;;;;;5.23;1.50;;;17.00;91.60;;;;;;5055286;28;20439;-84
2021/10/24 10:35:20;;;;;;;6.93;1.80;;;17.60;93.80;;;;;;5056393;28;20462;-87
2021/10/24 10:37:56;;;;;;;5.70;1.47;;;17.40;94.20;;;;;;5055427;28;20423;-85
2021/10/24 10:40:41;;;;;;;4.33;1.23;;;17.20;91.60;;;;;;5046993;28;20451;-87
2021/10/24 10:43:27;;;;;;;3.33;1.03;;;17.10;92.00;;;;;;5056361;28;20431;-82
2021/10/24 10:45:56;;;;;;;4.37;1.30;;;17.00;91.80;;;;;;5056618;28;20422;-90
2021/10/24 10:48:26;;;;;;;4.80;1.70;;;17.00;92.10;;;;;;5056582;28;20415;-84
2021/10/24 10:51:00;;;;;;;9.00;3.20;;;17.90;92.40;;;;;;5055206;28;20489;-89
2021/10/24 10:53:32;;;;;;;6.40;2.53;;;17.80;89.90;;;;;;5056884;28;20815;-93
2021/10/24 10:56:01;;;;;;;5.53;2.30;;;16.80;90.60;;;;;;5058567;28;20420;-87
2021/10/24 10:58:31;;;;;;;3.60;1.27;;;16.90;91.60;;;;;;5066261;28;20990;-88
2021/10/24 11:00:57;;;;;;;5.40;1.77;;;17.10;91.20;;;;;;5059230;28;20428;-89
2021/10/24 11:03:43;;;;;;;2.00;1.23;;;17.90;93.20;;;;;;5062335;28;20502;-91
2021/10/24 11:06:33;;;;;;;3.80;1.57;;;17.40;90.10;;;;;;5060640;28;20427;-88
2021/10/24 11:09:01;;;;;;;3.60;1.03;;;16.80;90.60;;;;;;5056696;28;20854;-87
2021/10/24 11:11:43;;;;;;;5.23;1.33;;;17.60;90.30;;;;;;5056157;28;20497;-87
2021/10/24 11:14:15;;;;;;;4.73;1.20;;;17.50;89.40;;;;;;5037343;28;20808;-88
2021/10/24 11:17:00;;;;;;;2.70;0.97;;;17.80;88.70;;;;;;5055729;28;20407;-88
2021/10/24 11:19:28;;;;;;;3.17;0.60;;;17.40;88.10;;;;;;5055751;28;20467;-88
2021/10/24 11:21:59;;;;;;;4.30;1.23;;;18.20;90.10;;;;;;5054277;28;20404;-89
2021/10/24 11:24:48;;;;;;;6.17;1.37;;;18.10;90.20;;;;;;5037919;28;20431;-89
2021/10/24 11:27:16;;;;;;;2.23;1.00;;;17.20;90.20;;;;;;5055869;28;20403;-90
2021/10/24 11:29:57;;;;;;;4.13;0.70;;;17.10;91.10;;;;;;5054987;28;20423;-91
2021/10/24 11:32:30;;;;;;;3.20;0.80;;;17.90;84.60;;;;;;5055041;28;20496;-88
2021/10/24 11:34:57;;;;;;;7.43;1.60;;;18.80;85.70;;;;;;5055758;28;20491;-89
2021/10/24 11:37:35;;;;;;;2.43;1.30;;;18.80;86.00;;;;;;5037633;28;20419;-90
2021/10/24 11:40:03;;;;;;;3.00;1.00;;;18.30;85.70;;;;;;5054076;28;20476;-89
2021/10/24 11:42:30;;;;;;;3.60;0.60;;;18.10;83.10;;;;;;5054519;28;20418;-89
2021/10/24 11:44:55;;;;;;;3.67;0.70;;;18.30;82.00;;;;;;5055572;28;20465;-88
2021/10/24 11:47:21;;;;;;;4.37;0.83;;;19.80;77.50;;;;;;5055772;28;20499;-89
2021/10/24 11:49:52;;;;;;;4.50;0.80;;;19.20;74.90;;;;;;5055573;28;20173;-88
2021/10/24 11:52:26;;;;;;;3.53;1.30;;;20.00;76.80;;;;;;5055169;28;20166;-90
2021/10/24 11:55:18;;;;;;;5.23;0.77;;;21.30;73.80;;;;;;5055583;28;20407;-89
2021/10/24 11:58:05;;;;;;;5.23;0.93;;;19.20;73.20;;;;;;5051820;28;20474;-89
2021/10/24 12:03:32;;;;;;;3.90;0.60;;;20.90;68.00;;;;;;5055705;28;20418;-89
2021/10/24 12:05:58;;;;;;;4.83;0.80;;;22.50;68.00;;;;;;5054996;28;20423;-90
2021/10/24 12:08:46;;;;;;;3.30;1.33;;;22.30;62.90;;;;;;5055794;28;20419;-87
2021/10/24 12:11:18;;;;;;;3.63;0.77;;;22.20;59.80;;;;;;5055206;28;20165;-87
2021/10/24 12:13:45;;;;;;;2.47;0.90;;;22.50;99.90;;;;;;5055353;28;20413;-90
2021/10/24 12:16:33;;;;;;;3.53;1.00;;;23.10;99.90;;;;;;5054850;28;20424;-89
2021/10/24 12:19:30;;;;;;;2.43;0.90;;;23.00;99.90;;;;;;5054705;28;20498;-89
2021/10/24 12:22:07;;;;;;;2.80;1.10;;;23.00;99.90;;;;;;5053908;28;20503;-89
2021/10/24 12:24:49;;;;;;;5.23;0.73;;;21.10;99.90;;;;;;5054883;28;20773;-90
2021/10/24 12:27:24;;;;;;;0.90;0.40;;;22.10;99.90;;;;;;5054985;28;20419;-86
2021/10/24 12:29:59;;;;;;;4.77;0.70;;;21.60;99.90;;;;;;5036720;28;20476;-87
2021/10/24 12:32:26;;;;;;;2.43;0.90;;;22.40;99.90;;;;;;5054651;28;20495;-89
2021/10/24 12:35:10;;;;;;;1.43;0.90;;;21.30;99.90;;;;;;5054818;28;20415;-89
2021/10/24 12:37:38;;;;;;;1.37;0.80;;;20.30;99.90;;;;;;5054370;28;20491;-90
2021/10/24 12:40:23;;;;;;;2.03;0.40;;;17.50;99.90;;;;;;5054667;28;20995;-89
2021/10/24 12:43:12;;;;;;;2.00;0.63;;;16.30;99.90;;;;;;5053884;28;20966;-90
2021/10/24 12:45:49;;;;;;;3.70;1.00;;;16.20;99.90;;;;;;5049477;28;20451;-83
2021/10/24 12:48:15;;;;;;;1.40;1.13;;;16.30;99.90;;;;;;5043519;28;20433;-86
2021/10/24 12:50:41;;;;;;;2.20;0.57;;;15.80;99.90;;;;;;5053733;28;20482;-86
2021/10/24 12:53:15;;;;;;;3.20;0.90;;;15.80;99.90;;;;;;5053440;28;20453;-82
2021/10/24 12:56:05;;;;;;;2.00;0.90;;;15.50;99.90;;;;;;5053869;28;20436;-86
2021/10/24 12:58:32;;;;;;;2.73;1.07;;;15.10;99.90;;;;;;5053829;28;20468;-91
2021/10/24 13:00:57;;;;;;;2.20;0.60;;;15.00;99.90;;;;;;5036003;28;20420;-89
2021/10/24 13:03:23;;;;;;;2.43;1.20;;;14.90;99.90;;;;;;5054269;28;20426;-91
2021/10/24 13:05:51;;;;;;;3.77;1.10;;;15.00;99.90;;;;;;5053658;28;20263;-88
2021/10/24 13:08:17;;;;;;;1.87;0.70;;;14.60;99.90;;;;;;5053839;28;20172;-84
2021/10/24 13:10:43;;;;;;;2.67;0.60;;;14.40;99.90;;;;;;5054012;28;20411;-86